sensor_id;sensor_type;location;lat;lon;timestamp;pressure;altitude;pressure_sealevel;temperature;humidity
45541;BME280;31265;49.680;8.608;2023-06-10T00:01:03;100156.69;;;19.40;100.00
45541;BME280;31265;49.680;8.608;2023-06-10T00:03:31;100155.66;;;19.33;100.00
45541;BME280;31265;49.680;8.608;2023-06-10T00:06:04;100167.56;;;19.32;100.00
45541;BME280;31265;49.680;8.608;2023-06-10T00:08:34;100161.81;;;19.73;100.00
45541;BME280;31265;49.680;8.608;2023-06-10T00:11:04;100161.16;;;19.75;100.00
45541;BME280;31265;49.680;8.608;2023-06-10T00:13:33;100161.47;;;19.81;100.00
45541;BME280;31265;49.680;8.608;2023-06-10T00:16:04;100168.44;;;19.80;100.00
45541;BME280;31265;49.680;8.608;2023-06-10T00:18:32;100161.72;;;19.71;100.00
45541;BME280;31265;49.680;8.608;2023-06-10T00:21:04;100158.94;;;19.58;100.00
45541;BME280;31265;49.680;8.608;2023-06-10T00:23:32;100165.16;;;19.70;100.00
45541;BME280;31265;49.680;8.608;2023-06-10T00:26:06;100165.09;;;19.54;100.00
45541;BME280;31265;49.680;8.608;2023-06-10T00:28:35;100160.34;;;19.43;100.00
45541;BME280;31265;49.680;8.608;2023-06-10T00:31:03;100159.13;;;19.32;100.00
45541;BME280;31265;49.680;8.608;2023-06-10T00:33:32;100162.88;;;19.23;100.00
45541;BME280;31265;49.680;8.608;2023-06-10T00:36:01;100161.47;;;19.08;100.00
45541;BME280;31265;49.680;8.608;2023-06-10T00:38:30;100163.22;;;19.01;100.00
45541;BME280;31265;49.680;8.608;2023-06-10T00:40:59;100163.78;;;18.84;100.00
45541;BME280;31265;49.680;8.608;2023-06-10T00:43:31;100159.28;;;18.79;100.00
45541;BME280;31265;49.680;8.608;2023-06-10T00:46:00;100155.31;;;18.56;100.00
45541;BME280;31265;49.680;8.608;2023-06-10T00:48:29;100164.16;;;18.37;100.00
45541;BME280;31265;49.680;8.608;2023-06-10T00:50:59;100163.50;;;18.24;100.00
45541;BME280;31265;49.680;8.608;2023-06-10T00:53:28;100167.06;;;18.25;100.00
45541;BME280;31265;49.680;8.608;2023-06-10T00:55:57;100166.13;;;18.20;100.00
45541;BME280;31265;49.680;8.608;2023-06-10T00:58:29;100159.84;;;18.08;100.00
45541;BME280;31265;49.680;8.608;2023-06-10T01:00:59;100166.41;;;18.13;100.00
45541;BME280;31265;49.680;8.608;2023-06-10T01:03:27;100164.28;;;17.99;100.00
45541;BME280;31265;49.680;8.608;2023-06-10T01:06:00;100168.44;;;17.98;100.00
45541;BME280;31265;49.680;8.608;2023-06-10T01:08:39;100166.94;;;17.83;100.00
45541;BME280;31265;49.680;8.608;2023-06-10T01:11:21;100169.06;;;17.71;100.00
45541;BME280;31265;49.680;8.608;2023-06-10T01:13:49;100171.91;;;17.59;100.00
45541;BME280;31265;49.680;8.608;2023-06-10T01:16:21;100172.56;;;17.46;100.00
45541;BME280;31265;49.680;8.608;2023-06-10T01:18:52;100174.06;;;17.35;100.00
45541;BME280;31265;49.680;8.608;2023-06-10T01:21:24;100174.69;;;17.34;100.00
45541;BME280;31265;49.680;8.608;2023-06-10T01:23:54;100173.00;;;17.29;100.00
45541;BME280;31265;49.680;8.608;2023-06-10T01:26:27;100170.94;;;17.17;100.00
45541;BME280;31265;49.680;8.608;2023-06-10T01:29:00;100170.59;;;17.11;100.00
45541;BME280;31265;49.680;8.608;2023-06-10T01:31:37;100170.00;;;17.01;100.00
45541;BME280;31265;49.680;8.608;2023-06-10T01:34:10;100172.22;;;16.91;100.00
45541;BME280;31265;49.680;8.608;2023-06-10T01:36:44;100169.28;;;16.89;100.00
45541;BME280;31265;49.680;8.608;2023-06-10T01:39:15;100166.47;;;16.89;100.00
45541;BME280;31265;49.680;8.608;2023-06-10T01:41:46;100165.16;;;16.90;100.00
45541;BME280;31265;49.680;8.608;2023-06-10T01:44:18;100167.00;;;16.85;100.00
45541;BME280;31265;49.680;8.608;2023-06-10T01:46:47;100173.56;;;16.90;100.00
45541;BME280;31265;49.680;8.608;2023-06-10T01:49:15;100180.41;;;16.87;100.00
45541;BME280;31265;49.680;8.608;2023-06-10T01:51:45;100172.09;;;16.89;100.00
45541;BME280;31265;49.680;8.608;2023-06-10T01:54:13;100178.78;;;16.84;100.00
45541;BME280;31265;49.680;8.608;2023-06-10T01:56:42;100168.69;;;16.90;100.00
45541;BME280;31265;49.680;8.608;2023-06-10T01:59:11;100183.28;;;16.89;100.00
45541;BME280;31265;49.680;8.608;2023-06-10T02:01:39;100175.41;;;16.85;100.00
45541;BME280;31265;49.680;8.608;2023-06-10T02:04:10;100166.59;;;16.91;100.00
45541;BME280;31265;49.680;8.608;2023-06-10T02:06:38;100170.03;;;16.89;100.00
45541;BME280;31265;49.680;8.608;2023-06-10T02:09:11;100176.50;;;16.92;100.00
45541;BME280;31265;49.680;8.608;2023-06-10T02:11:42;100168.34;;;16.84;100.00
45541;BME280;31265;49.680;8.608;2023-06-10T02:14:18;100168.34;;;16.84;100.00
45541;BME280;31265;49.680;8.608;2023-06-10T02:16:50;100180.03;;;16.81;100.00
45541;BME280;31265;49.680;8.608;2023-06-10T02:19:23;100178.78;;;16.84;100.00
45541;BME280;31265;49.680;8.608;2023-06-10T02:21:54;100172.56;;;16.73;100.00
45541;BME280;31265;49.680;8.608;2023-06-10T02:24:24;100176.59;;;16.70;100.00
45541;BME280;31265;49.680;8.608;2023-06-10T02:26:52;100171.63;;;16.57;100.00
45541;BME280;31265;49.680;8.608;2023-06-10T02:29:21;100173.06;;;16.58;100.00
45541;BME280;31265;49.680;8.608;2023-06-10T02:31:53;100173.31;;;16.50;100.00
45541;BME280;31265;49.680;8.608;2023-06-10T02:34:21;100172.94;;;16.44;100.00
45541;BME280;31265;49.680;8.608;2023-06-10T02:36:50;100175.84;;;16.46;100.00
45541;BME280;31265;49.680;8.608;2023-06-10T02:39:22;100185.63;;;16.45;100.00
45541;BME280;31265;49.680;8.608;2023-06-10T02:41:54;100183.66;;;16.48;100.00
45541;BME280;31265;49.680;8.608;2023-06-10T02:44:25;100189.97;;;16.37;100.00
45541;BME280;31265;49.680;8.608;2023-06-10T02:46:54;100180.72;;;16.34;100.00
45541;BME280;31265;49.680;8.608;2023-06-10T02:49:22;100189.72;;;16.44;100.00
45541;BME280;31265;49.680;8.608;2023-06-10T02:51:51;100191.06;;;16.31;100.00
45541;BME280;31265;49.680;8.608;2023-06-10T02:54:21;100186.56;;;16.26;100.00
45541;BME280;31265;49.680;8.608;2023-06-10T02:56:51;100190.44;;;16.21;100.00
45541;BME280;31265;49.680;8.608;2023-06-10T02:59:27;100189.22;;;16.12;100.00
45541;BME280;31265;49.680;8.608;2023-06-10T03:01:55;100188.69;;;16.04;100.00
45541;BME280;31265;49.680;8.608;2023-06-10T03:04:25;100193.06;;;15.96;100.00
45541;BME280;31265;49.680;8.608;2023-06-10T03:07:02;100187.44;;;15.84;100.00
45541;BME280;31265;49.680;8.608;2023-06-10T03:09:34;100185.84;;;15.81;100.00
45541;BME280;31265;49.680;8.608;2023-06-10T03:12:04;100187.94;;;15.80;100.00
45541;BME280;31265;49.680;8.608;2023-06-10T03:14:41;100191.66;;;15.73;100.00
45541;BME280;31265;49.680;8.608;2023-06-10T03:17:10;100192.25;;;15.72;100.00
45541;BME280;31265;49.680;8.608;2023-06-10T03:19:41;100189.06;;;15.65;100.00
45541;BME280;31265;49.680;8.608;2023-06-10T03:22:12;100188.31;;;15.65;100.00
45541;BME280;31265;49.680;8.608;2023-06-10T03:24:48;100195.66;;;15.70;100.00
45541;BME280;31265;49.680;8.608;2023-06-10T03:27:18;100197.13;;;15.71;100.00
45541;BME280;31265;49.680;8.608;2023-06-10T03:29:52;100200.97;;;15.66;100.00
45541;BME280;31265;49.680;8.608;2023-06-10T03:32:21;100200.69;;;15.62;100.00
45541;BME280;31265;49.680;8.608;2023-06-10T03:34:50;100201.78;;;15.57;100.00
45541;BME280;31265;49.680;8.608;2023-06-10T03:37:27;100202.13;;;15.51;100.00
45541;BME280;31265;49.680;8.608;2023-06-10T03:39:58;100201.13;;;15.46;100.00
45541;BME280;31265;49.680;8.608;2023-06-10T03:42:26;100209.97;;;15.43;100.00
45541;BME280;31265;49.680;8.608;2023-06-10T03:44:57;100214.84;;;15.42;100.00
45541;BME280;31265;49.680;8.608;2023-06-10T03:47:33;100214.97;;;15.44;100.00
45541;BME280;31265;49.680;8.608;2023-06-10T03:50:04;100206.59;;;15.44;100.00
45541;BME280;31265;49.680;8.608;2023-06-10T03:52:33;100214.09;;;15.42;100.00
45541;BME280;31265;49.680;8.608;2023-06-10T03:55:02;100207.91;;;15.43;100.00
45541;BME280;31265;49.680;8.608;2023-06-10T03:57:31;100218.63;;;15.47;100.00
45541;BME280;31265;49.680;8.608;2023-06-10T04:00:01;100216.44;;;15.45;100.00
45541;BME280;31265;49.680;8.608;2023-06-10T04:02:41;100216.69;;;15.49;100.00
45541;BME280;31265;49.680;8.608;2023-06-10T04:05:19;100218.19;;;15.51;100.00
45541;BME280;31265;49.680;8.608;2023-06-10T04:07:49;100217.56;;;15.52;100.00
45541;BME280;31265;49.680;8.608;2023-06-10T04:10:18;100220.63;;;15.56;100.00
45541;BME280;31265;49.680;8.608;2023-06-10T04:12:47;100224.00;;;15.55;100.00
45541;BME280;31265;49.680;8.608;2023-06-10T04:15:17;100222.81;;;15.58;100.00
45541;BME280;31265;49.680;8.608;2023-06-10T04:17:46;100223.69;;;15.60;100.00
45541;BME280;31265;49.680;8.608;2023-06-10T04:20:18;100224.38;;;15.71;100.00
45541;BME280;31265;49.680;8.608;2023-06-10T04:22:48;100227.19;;;15.82;100.00
45541;BME280;31265;49.680;8.608;2023-06-10T04:25:17;100230.53;;;15.90;100.00
45541;BME280;31265;49.680;8.608;2023-06-10T04:27:45;100223.22;;;15.97;100.00
45541;BME280;31265;49.680;8.608;2023-06-10T04:30:14;100237.13;;;16.07;100.00
45541;BME280;31265;49.680;8.608;2023-06-10T04:32:44;100235.00;;;16.17;100.00
45541;BME280;31265;49.680;8.608;2023-06-10T04:35:16;100232.06;;;16.27;100.00
45541;BME280;31265;49.680;8.608;2023-06-10T04:37:46;100227.97;;;16.40;100.00
45541;BME280;31265;49.680;8.608;2023-06-10T04:40:15;100232.84;;;16.51;100.00
45541;BME280;31265;49.680;8.608;2023-06-10T04:42:45;100237.75;;;16.62;100.00
45541;BME280;31265;49.680;8.608;2023-06-10T04:45:14;100229.22;;;16.72;100.00
45541;BME280;31265;49.680;8.608;2023-06-10T04:47:44;100246.28;;;16.88;100.00
45541;BME280;31265;49.680;8.608;2023-06-10T04:50:13;100241.66;;;17.04;100.00
45541;BME280;31265;49.680;8.608;2023-06-10T04:52:41;100238.47;;;17.10;100.00
45541;BME280;31265;49.680;8.608;2023-06-10T04:55:10;100243.75;;;17.04;100.00
45541;BME280;31265;49.680;8.608;2023-06-10T04:57:38;100245.06;;;17.03;100.00
45541;BME280;31265;49.680;8.608;2023-06-10T05:00:08;100247.50;;;17.08;100.00
45541;BME280;31265;49.680;8.608;2023-06-10T05:02:36;100249.69;;;17.22;100.00
45541;BME280;31265;49.680;8.608;2023-06-10T05:05:07;100240.63;;;17.35;100.00
45541;BME280;31265;49.680;8.608;2023-06-10T05:07:36;100244.75;;;17.46;100.00
45541;BME280;31265;49.680;8.608;2023-06-10T05:10:06;100244.50;;;17.53;100.00
45541;BME280;31265;49.680;8.608;2023-06-10T05:12:35;100240.06;;;17.62;100.00
45541;BME280;31265;49.680;8.608;2023-06-10T05:15:06;100241.72;;;17.79;100.00
45541;BME280;31265;49.680;8.608;2023-06-10T05:17:35;100249.88;;;17.87;100.00
45541;BME280;31265;49.680;8.608;2023-06-10T05:20:06;100247.53;;;17.95;100.00
45541;BME280;31265;49.680;8.608;2023-06-10T05:22:35;100251.41;;;18.01;100.00
45541;BME280;31265;49.680;8.608;2023-06-10T05:25:04;100250.13;;;18.16;100.00
45541;BME280;31265;49.680;8.608;2023-06-10T05:27:33;100252.97;;;18.30;100.00
45541;BME280;31265;49.680;8.608;2023-06-10T05:30:02;100248.09;;;18.44;100.00
45541;BME280;31265;49.680;8.608;2023-06-10T05:32:32;100251.06;;;18.60;100.00
45541;BME280;31265;49.680;8.608;2023-06-10T05:35:01;100253.88;;;18.74;100.00
45541;BME280;31265;49.680;8.608;2023-06-10T05:37:33;100256.75;;;18.88;100.00
45541;BME280;31265;49.680;8.608;2023-06-10T05:40:02;100259.34;;;18.98;100.00
45541;BME280;31265;49.680;8.608;2023-06-10T05:42:31;100263.09;;;19.16;100.00
45541;BME280;31265;49.680;8.608;2023-06-10T05:44:59;100261.44;;;19.39;100.00
45541;BME280;31265;49.680;8.608;2023-06-10T05:47:28;100269.19;;;19.68;100.00
45541;BME280;31265;49.680;8.608;2023-06-10T05:49:57;100260.34;;;19.73;100.00
45541;BME280;31265;49.680;8.608;2023-06-10T05:52:26;100266.44;;;19.84;100.00
45541;BME280;31265;49.680;8.608;2023-06-10T05:54:56;100268.59;;;19.99;100.00
45541;BME280;31265;49.680;8.608;2023-06-10T05:57:26;100268.09;;;20.34;100.00
45541;BME280;31265;49.680;8.608;2023-06-10T05:59:54;100276.75;;;20.38;100.00
45541;BME280;31265;49.680;8.608;2023-06-10T06:02:23;100271.03;;;20.52;100.00
45541;BME280;31265;49.680;8.608;2023-06-10T06:04:52;100274.34;;;20.78;100.00
45541;BME280;31265;49.680;8.608;2023-06-10T06:07:20;100276.06;;;20.86;100.00
45541;BME280;31265;49.680;8.608;2023-06-10T06:09:49;100266.59;;;20.95;100.00
45541;BME280;31265;49.680;8.608;2023-06-10T06:12:19;100270.69;;;21.08;100.00
45541;BME280;31265;49.680;8.608;2023-06-10T06:14:48;100275.75;;;21.27;100.00
45541;BME280;31265;49.680;8.608;2023-06-10T06:17:17;100268.00;;;21.27;100.00
45541;BME280;31265;49.680;8.608;2023-06-10T06:19:45;100267.69;;;21.37;100.00
45541;BME280;31265;49.680;8.608;2023-06-10T06:22:14;100261.78;;;21.47;100.00
45541;BME280;31265;49.680;8.608;2023-06-10T06:24:47;100271.16;;;21.52;100.00
45541;BME280;31265;49.680;8.608;2023-06-10T06:27:16;100265.75;;;21.76;100.00
45541;BME280;31265;49.680;8.608;2023-06-10T06:29:47;100268.84;;;22.00;100.00
45541;BME280;31265;49.680;8.608;2023-06-10T06:32:16;100262.78;;;22.25;100.00
45541;BME280;31265;49.680;8.608;2023-06-10T06:34:44;100268.03;;;22.33;100.00
45541;BME280;31265;49.680;8.608;2023-06-10T06:37:13;100267.09;;;22.46;100.00
45541;BME280;31265;49.680;8.608;2023-06-10T06:39:44;100270.13;;;22.70;100.00
45541;BME280;31265;49.680;8.608;2023-06-10T06:42:12;100270.19;;;22.92;100.00
45541;BME280;31265;49.680;8.608;2023-06-10T06:45:04;100271.63;;;23.33;100.00
45541;BME280;31265;49.680;8.608;2023-06-10T06:47:32;100271.91;;;23.64;100.00
45541;BME280;31265;49.680;8.608;2023-06-10T06:50:00;100286.97;;;23.90;100.00
45541;BME280;31265;49.680;8.608;2023-06-10T06:52:29;100286.03;;;24.06;100.00
45541;BME280;31265;49.680;8.608;2023-06-10T06:54:57;100282.31;;;24.23;98.54
45541;BME280;31265;49.680;8.608;2023-06-10T06:57:25;100287.75;;;24.39;97.44
45541;BME280;31265;49.680;8.608;2023-06-10T06:59:54;100288.28;;;24.81;95.46
45541;BME280;31265;49.680;8.608;2023-06-10T07:02:25;100289.97;;;25.17;91.46
45541;BME280;31265;49.680;8.608;2023-06-10T07:04:53;100288.94;;;25.30;90.52
45541;BME280;31265;49.680;8.608;2023-06-10T07:07:23;100289.81;;;25.65;91.98
45541;BME280;31265;49.680;8.608;2023-06-10T07:09:51;100283.66;;;26.05;88.37
45541;BME280;31265;49.680;8.608;2023-06-10T07:12:21;100276.41;;;26.30;87.30
45541;BME280;31265;49.680;8.608;2023-06-10T07:14:51;100281.75;;;26.48;87.25
45541;BME280;31265;49.680;8.608;2023-06-10T07:17:19;100290.00;;;26.68;83.09
45541;BME280;31265;49.680;8.608;2023-06-10T07:19:49;100289.16;;;26.95;83.35
45541;BME280;31265;49.680;8.608;2023-06-10T07:22:18;100290.91;;;27.13;81.01
45541;BME280;31265;49.680;8.608;2023-06-10T07:24:46;100290.03;;;27.42;80.71
45541;BME280;31265;49.680;8.608;2023-06-10T07:27:14;100295.31;;;27.60;79.16
45541;BME280;31265;49.680;8.608;2023-06-10T07:29:43;100294.78;;;27.70;75.41
45541;BME280;31265;49.680;8.608;2023-06-10T07:32:11;100286.06;;;27.60;77.53
45541;BME280;31265;49.680;8.608;2023-06-10T07:34:39;100284.75;;;28.14;75.74
45541;BME280;31265;49.680;8.608;2023-06-10T07:37:09;100281.22;;;28.15;75.86
45541;BME280;31265;49.680;8.608;2023-06-10T07:39:38;100285.44;;;28.63;71.74
45541;BME280;31265;49.680;8.608;2023-06-10T07:42:07;100281.44;;;28.86;71.02
45541;BME280;31265;49.680;8.608;2023-06-10T07:44:40;100282.06;;;28.79;71.46
45541;BME280;31265;49.680;8.608;2023-06-10T07:47:09;100291.94;;;28.69;69.92
45541;BME280;31265;49.680;8.608;2023-06-10T07:49:37;100286.16;;;28.61;71.14
45541;BME280;31265;49.680;8.608;2023-06-10T07:52:07;100290.41;;;29.21;69.53
45541;BME280;31265;49.680;8.608;2023-06-10T07:54:37;100288.34;;;29.32;67.90
45541;BME280;31265;49.680;8.608;2023-06-10T07:57:06;100291.16;;;29.26;68.14
45541;BME280;31265;49.680;8.608;2023-06-10T07:59:34;100276.78;;;29.15;68.31
45541;BME280;31265;49.680;8.608;2023-06-10T08:02:03;100279.38;;;29.66;67.58
45541;BME280;31265;49.680;8.608;2023-06-10T08:04:32;100280.13;;;29.71;63.46
45541;BME280;31265;49.680;8.608;2023-06-10T08:07:02;100280.63;;;29.47;62.62
45541;BME280;31265;49.680;8.608;2023-06-10T08:09:31;100278.09;;;29.06;63.74
45541;BME280;31265;49.680;8.608;2023-06-10T08:12:03;100283.28;;;29.24;63.05
45541;BME280;31265;49.680;8.608;2023-06-10T08:14:34;100295.03;;;29.61;63.35
45541;BME280;31265;49.680;8.608;2023-06-10T08:17:04;100280.75;;;29.61;62.33
45541;BME280;31265;49.680;8.608;2023-06-10T08:19:35;100282.50;;;29.15;63.59
45541;BME280;31265;49.680;8.608;2023-06-10T08:22:04;100281.78;;;29.17;63.57
45541;BME280;31265;49.680;8.608;2023-06-10T08:24:32;100278.56;;;29.59;62.66
45541;BME280;31265;49.680;8.608;2023-06-10T08:27:02;100281.06;;;30.02;60.88
45541;BME280;31265;49.680;8.608;2023-06-10T08:29:31;100280.50;;;30.26;62.85
45541;BME280;31265;49.680;8.608;2023-06-10T08:32:00;100276.31;;;30.43;59.97
45541;BME280;31265;49.680;8.608;2023-06-10T08:34:29;100279.28;;;30.78;61.67
45541;BME280;31265;49.680;8.608;2023-06-10T08:36:57;100281.53;;;30.94;58.05
45541;BME280;31265;49.680;8.608;2023-06-10T08:39:26;100281.53;;;30.94;55.73
45541;BME280;31265;49.680;8.608;2023-06-10T08:42:00;100265.69;;;30.81;55.47
45541;BME280;31265;49.680;8.608;2023-06-10T08:44:35;100279.25;;;30.60;57.08
45541;BME280;31265;49.680;8.608;2023-06-10T08:47:09;100275.72;;;30.72;55.76
45541;BME280;31265;49.680;8.608;2023-06-10T08:49:43;100272.09;;;30.63;56.53
45541;BME280;31265;49.680;8.608;2023-06-10T08:52:15;100270.06;;;31.00;55.55
45541;BME280;31265;49.680;8.608;2023-06-10T08:54:49;100267.31;;;31.45;57.53
45541;BME280;31265;49.680;8.608;2023-06-10T08:57:21;100264.44;;;31.64;54.64
45541;BME280;31265;49.680;8.608;2023-06-10T08:59:50;100270.78;;;32.24;52.89
45541;BME280;31265;49.680;8.608;2023-06-10T09:02:20;100265.16;;;31.58;60.11
45541;BME280;31265;49.680;8.608;2023-06-10T09:04:50;100267.97;;;31.87;57.00
45541;BME280;31265;49.680;8.608;2023-06-10T09:07:20;100259.34;;;32.16;50.78
45541;BME280;31265;49.680;8.608;2023-06-10T09:09:51;100262.97;;;31.69;49.90
45541;BME280;31265;49.680;8.608;2023-06-10T09:12:21;100265.13;;;31.34;55.25
45541;BME280;31265;49.680;8.608;2023-06-10T09:14:51;100270.03;;;30.88;53.49
45541;BME280;31265;49.680;8.608;2023-06-10T09:17:19;100269.38;;;31.06;54.31
45541;BME280;31265;49.680;8.608;2023-06-10T09:19:48;100265.78;;;31.07;52.13
45541;BME280;31265;49.680;8.608;2023-06-10T09:22:22;100266.56;;;31.76;53.81
45541;BME280;31265;49.680;8.608;2023-06-10T09:24:50;100262.19;;;30.93;51.11
45541;BME280;31265;49.680;8.608;2023-06-10T09:27:18;100256.56;;;31.60;52.88
45541;BME280;31265;49.680;8.608;2023-06-10T09:29:48;100257.94;;;31.80;51.71
45541;BME280;31265;49.680;8.608;2023-06-10T09:32:21;100257.25;;;31.36;57.09
45541;BME280;31265;49.680;8.608;2023-06-10T09:34:49;100253.66;;;31.19;56.45
45541;BME280;31265;49.680;8.608;2023-06-10T09:37:21;100251.22;;;30.32;53.47
45541;BME280;31265;49.680;8.608;2023-06-10T09:40:01;100244.25;;;29.53;56.54
45541;BME280;31265;49.680;8.608;2023-06-10T09:42:32;100254.59;;;30.01;57.38
45541;BME280;31265;49.680;8.608;2023-06-10T09:45:02;100248.28;;;30.23;57.21
45541;BME280;31265;49.680;8.608;2023-06-10T09:47:32;100251.22;;;30.36;54.05
45541;BME280;31265;49.680;8.608;2023-06-10T09:50:00;100248.91;;;30.06;56.39
45541;BME280;31265;49.680;8.608;2023-06-10T09:52:29;100247.84;;;29.56;54.05
45541;BME280;31265;49.680;8.608;2023-06-10T09:55:02;100241.25;;;30.37;52.97
45541;BME280;31265;49.680;8.608;2023-06-10T09:57:31;100244.31;;;29.62;54.50
45541;BME280;31265;49.680;8.608;2023-06-10T10:00:05;100244.81;;;30.41;52.74
45541;BME280;31265;49.680;8.608;2023-06-10T10:02:50;100242.75;;;30.69;51.82
45541;BME280;31265;49.680;8.608;2023-06-10T10:05:20;100236.31;;;30.60;49.90
45541;BME280;31265;49.680;8.608;2023-06-10T10:07:52;100235.00;;;31.02;50.31
45541;BME280;31265;49.680;8.608;2023-06-10T10:10:20;100240.63;;;30.69;52.27
45541;BME280;31265;49.680;8.608;2023-06-10T10:12:53;100231.44;;;31.10;50.86
45541;BME280;31265;49.680;8.608;2023-06-10T10:15:31;100235.03;;;31.26;50.85
45541;BME280;31265;49.680;8.608;2023-06-10T10:18:07;100240.75;;;31.88;49.77
45541;BME280;31265;49.680;8.608;2023-06-10T10:20:50;100236.44;;;31.83;50.24
45541;BME280;31265;49.680;8.608;2023-06-10T10:23:28;100233.59;;;31.95;48.10
45541;BME280;31265;49.680;8.608;2023-06-10T10:26:00;100227.16;;;31.47;48.52
45541;BME280;31265;49.680;8.608;2023-06-10T10:28:37;100235.03;;;31.76;47.88
45541;BME280;31265;49.680;8.608;2023-06-10T10:31:10;100217.72;;;32.14;47.29
45541;BME280;31265;49.680;8.608;2023-06-10T10:33:54;100219.63;;;32.71;45.04
45541;BME280;31265;49.680;8.608;2023-06-10T10:36:24;100226.19;;;32.60;46.47
45541;BME280;31265;49.680;8.608;2023-06-10T10:38:58;100210.31;;;32.69;44.65
45541;BME280;31265;49.680;8.608;2023-06-10T10:41:32;100213.25;;;32.63;45.97
45541;BME280;31265;49.680;8.608;2023-06-10T10:44:06;100212.41;;;32.78;46.86
45541;BME280;31265;49.680;8.608;2023-06-10T10:46:44;100219.91;;;32.04;43.69
45541;BME280;31265;49.680;8.608;2023-06-10T10:49:27;100220.47;;;32.45;46.83
45541;BME280;31265;49.680;8.608;2023-06-10T10:51:59;100215.13;;;33.05;47.81
45541;BME280;31265;49.680;8.608;2023-06-10T10:54:32;100216.97;;;32.32;49.81
45541;BME280;31265;49.680;8.608;2023-06-10T10:57:12;100204.66;;;32.56;43.96
45541;BME280;31265;49.680;8.608;2023-06-10T10:59:54;100216.50;;;33.14;41.58
45541;BME280;31265;49.680;8.608;2023-06-10T11:02:36;100203.09;;;32.78;44.31
45541;BME280;31265;49.680;8.608;2023-06-10T11:05:08;100200.97;;;32.74;43.04
45541;BME280;31265;49.680;8.608;2023-06-10T11:07:52;100205.38;;;32.55;44.69
45541;BME280;31265;49.680;8.608;2023-06-10T11:10:30;100205.09;;;33.06;43.08
45541;BME280;31265;49.680;8.608;2023-06-10T11:13:06;100206.13;;;33.52;42.81
45541;BME280;31265;49.680;8.608;2023-06-10T11:15:44;100206.81;;;33.59;40.50
45541;BME280;31265;49.680;8.608;2023-06-10T11:18:23;100200.97;;;33.65;41.39
45541;BME280;31265;49.680;8.608;2023-06-10T11:21:11;100196.78;;;33.52;43.91
45541;BME280;31265;49.680;8.608;2023-06-10T11:23:41;100194.13;;;34.01;40.75
45541;BME280;31265;49.680;8.608;2023-06-10T11:26:17;100199.81;;;33.35;42.17
45541;BME280;31265;49.680;8.608;2023-06-10T11:29:09;100194.81;;;34.08;44.11
45541;BME280;31265;49.680;8.608;2023-06-10T11:31:45;100189.63;;;33.49;39.49
45541;BME280;31265;49.680;8.608;2023-06-10T11:34:22;100184.81;;;33.23;41.22
45541;BME280;31265;49.680;8.608;2023-06-10T11:37:02;100198.22;;;34.21;41.25
45541;BME280;31265;49.680;8.608;2023-06-10T11:39:32;100188.59;;;33.83;40.23
45541;BME280;31265;49.680;8.608;2023-06-10T11:42:02;100173.03;;;33.55;39.34
45541;BME280;31265;49.680;8.608;2023-06-10T11:44:34;100182.66;;;33.23;38.85
45541;BME280;31265;49.680;8.608;2023-06-10T11:47:05;100178.91;;;34.11;38.79
45541;BME280;31265;49.680;8.608;2023-06-10T11:49:34;100165.31;;;34.08;38.94
45541;BME280;31265;49.680;8.608;2023-06-10T11:52:06;100178.13;;;32.46;38.78
45541;BME280;31265;49.680;8.608;2023-06-10T11:54:34;100172.56;;;32.13;39.79
45541;BME280;31265;49.680;8.608;2023-06-10T11:57:03;100176.50;;;32.82;40.52
45541;BME280;31265;49.680;8.608;2023-06-10T11:59:32;100177.22;;;32.84;42.98
45541;BME280;31265;49.680;8.608;2023-06-10T12:02:01;100178.50;;;33.82;40.90
45541;BME280;31265;49.680;8.608;2023-06-10T12:04:30;100163.28;;;31.94;41.13
45541;BME280;31265;49.680;8.608;2023-06-10T12:06:59;100173.75;;;32.59;39.77
45541;BME280;31265;49.680;8.608;2023-06-10T12:09:30;100175.47;;;31.84;39.73
45541;BME280;31265;49.680;8.608;2023-06-10T12:12:01;100150.50;;;31.36;39.81
45541;BME280;31265;49.680;8.608;2023-06-10T12:14:55;100168.41;;;31.05;41.12
45541;BME280;31265;49.680;8.608;2023-06-10T12:17:36;100183.44;;;30.94;42.07
45541;BME280;31265;49.680;8.608;2023-06-10T12:20:07;100176.19;;;31.89;40.51
45541;BME280;31265;49.680;8.608;2023-06-10T12:22:38;100177.34;;;32.62;42.28
45541;BME280;31265;49.680;8.608;2023-06-10T12:25:09;100164.78;;;31.62;40.00
45541;BME280;31265;49.680;8.608;2023-06-10T12:27:40;100158.97;;;31.87;42.51
45541;BME280;31265;49.680;8.608;2023-06-10T12:30:19;100165.72;;;32.82;41.71
45541;BME280;31265;49.680;8.608;2023-06-10T12:32:49;100164.75;;;31.77;41.51
45541;BME280;31265;49.680;8.608;2023-06-10T12:35:19;100169.50;;;32.54;38.96
45541;BME280;31265;49.680;8.608;2023-06-10T12:37:54;100168.47;;;32.98;38.76
45541;BME280;31265;49.680;8.608;2023-06-10T12:40:29;100168.94;;;34.00;36.53
45541;BME280;31265;49.680;8.608;2023-06-10T12:42:59;100169.03;;;33.96;36.65
45541;BME280;31265;49.680;8.608;2023-06-10T12:45:31;100164.50;;;34.13;34.67
45541;BME280;31265;49.680;8.608;2023-06-10T12:48:06;100167.63;;;33.91;38.55
45541;BME280;31265;49.680;8.608;2023-06-10T12:50:38;100172.47;;;34.64;35.32
45541;BME280;31265;49.680;8.608;2023-06-10T12:53:07;100162.97;;;33.58;34.81
45541;BME280;31265;49.680;8.608;2023-06-10T12:55:37;100157.19;;;32.70;37.65
45541;BME280;31265;49.680;8.608;2023-06-10T12:58:06;100142.34;;;32.32;38.29
45541;BME280;31265;49.680;8.608;2023-06-10T13:00:34;100160.09;;;32.66;39.35
45541;BME280;31265;49.680;8.608;2023-06-10T13:03:03;100160.91;;;32.42;38.02
45541;BME280;31265;49.680;8.608;2023-06-10T13:05:34;100158.28;;;31.90;39.01